createdAt,value
2022-11-22T00:03:09.818Z,99031.56
2022-11-22T00:08:11.391Z,99032.16
2022-11-22T00:13:12.876Z,99034.22
2022-11-22T00:18:14.326Z,99042.13
2022-11-22T00:23:16.582Z,99031.84
2022-11-22T00:28:18.113Z,99023.69
2022-11-22T00:33:19.617Z,99028.50
2022-11-22T00:38:21.096Z,99011.44
2022-11-22T00:43:23.714Z,99002.78
2022-11-22T00:48:25.237Z,99005.28
2022-11-22T00:53:26.803Z,98998.97
2022-11-22T00:58:28.309Z,99001.97
2022-11-22T01:03:29.934Z,99004.16
2022-11-22T01:08:31.419Z,99013.91
2022-11-22T01:13:33.021Z,99012.94
2022-11-22T01:18:34.867Z,99037.69
2022-11-22T01:23:36.924Z,99025.81
2022-11-22T01:28:38.430Z,99033.00
2022-11-22T01:33:39.898Z,99027.47
2022-11-22T01:38:41.343Z,99014.69
2022-11-22T01:43:42.868Z,99009.28
2022-11-22T01:49:03.235Z,99000.53
2022-11-22T01:54:11.684Z,99012.22
2022-11-22T01:59:17.047Z,99001.56
2022-11-22T02:04:20.507Z,99005.16
2022-11-22T02:09:23.413Z,98996.81
2022-11-22T02:14:27.419Z,98997.97
2022-11-22T02:19:51.191Z,99008.41
2022-11-22T02:25:16.068Z,99004.88
2022-11-22T02:30:18.398Z,99005.34
2022-11-22T02:35:23.131Z,99001.69
2022-11-22T02:40:26.719Z,99012.34
2022-11-22T02:45:28.321Z,99015.09
2022-11-22T02:50:29.823Z,99024.06
2022-11-22T02:55:31.362Z,99016.97
2022-11-22T03:00:34.665Z,99024.50
2022-11-22T03:05:36.118Z,99001.88
2022-11-22T03:10:37.735Z,99024.66
2022-11-22T03:15:39.264Z,99018.09
2022-11-22T03:20:40.750Z,99025.38
2022-11-22T03:25:42.513Z,99028.91
2022-11-22T03:30:44.014Z,99027.06
2022-11-22T03:35:45.622Z,99049.69
2022-11-22T03:40:47.096Z,99047.81
2022-11-22T03:45:48.579Z,99035.47
2022-11-22T03:50:50.156Z,99049.72
2022-11-22T03:55:51.632Z,99056.69
2022-11-22T04:00:53.178Z,99054.88
2022-11-22T04:05:55.062Z,99055.25
2022-11-22T04:10:56.504Z,99061.50
2022-11-22T04:15:57.945Z,99073.19
2022-11-22T04:21:18.094Z,99072.34
2022-11-22T04:26:19.569Z,99075.06
2022-11-22T04:31:39.500Z,99069.84
2022-11-22T04:36:40.984Z,99080.69
2022-11-22T04:41:42.852Z,99076.16
2022-11-22T04:46:44.332Z,99074.97
2022-11-22T04:52:04.342Z,99078.56
2022-11-22T04:57:05.792Z,99072.97
2022-11-22T05:02:07.337Z,99068.41
2022-11-22T05:07:08.802Z,99074.19
2022-11-22T05:12:10.264Z,99074.88
2022-11-22T05:17:13.667Z,99076.41
2022-11-22T05:22:15.361Z,99077.25
2022-11-22T05:27:16.892Z,99075.56
2022-11-22T05:32:18.385Z,99080.44
2022-11-22T05:37:19.842Z,99079.41
2022-11-22T05:42:21.505Z,99082.16
2022-11-22T05:47:23.020Z,99081.50
2022-11-22T05:52:24.520Z,99085.22
2022-11-22T05:57:26.998Z,99089.28
2022-11-22T06:02:31.218Z,99079.31
2022-11-22T06:07:32.841Z,99088.13
2022-11-22T06:12:34.381Z,99078.88
2022-11-22T06:17:35.888Z,99100.97
2022-11-22T06:22:37.438Z,99102.34
2022-11-22T06:27:38.927Z,99103.69
2022-11-22T06:32:40.430Z,99095.75
2022-11-22T06:37:41.938Z,99101.50
2022-11-22T06:42:43.453Z,99103.88
2022-11-22T06:47:44.944Z,99110.97
2022-11-22T06:52:52.044Z,99097.78
2022-11-22T06:57:53.509Z,99098.63
2022-11-22T07:02:54.981Z,99095.06
2022-11-22T07:08:02.841Z,99093.34
2022-11-22T07:13:07.210Z,99105.38
2022-11-22T07:18:08.679Z,99108.91
2022-11-22T07:23:12.500Z,99117.00
2022-11-22T07:28:15.447Z,99123.25
2022-11-22T07:33:17.018Z,99133.22
2022-11-22T07:38:18.593Z,99125.44
2022-11-22T07:43:20.090Z,99131.31
2022-11-22T07:48:21.549Z,99148.06
2022-11-22T07:53:23.250Z,99158.69
2022-11-22T07:58:24.737Z,99155.66
2022-11-22T08:03:29.183Z,99160.19
2022-11-22T08:08:31.321Z,99156.00
2022-11-22T08:13:33.841Z,99169.47
2022-11-22T08:18:36.535Z,99180.97
2022-11-22T08:23:39.598Z,99180.66
2022-11-22T08:28:42.740Z,99181.16
2022-11-22T08:33:44.320Z,99178.97
2022-11-22T08:38:45.990Z,99186.19
2022-11-22T08:43:50.653Z,99191.09
2022-11-22T08:48:54.095Z,99198.91
2022-11-22T08:53:55.536Z,99201.78
2022-11-22T08:58:57.049Z,99210.53
2022-11-22T09:03:59.032Z,99206.16
2022-11-22T09:09:29.924Z,99224.91
2022-11-22T09:14:22.002Z,99219.16
2022-11-22T09:19:23.538Z,99224.38
2022-11-22T09:24:24.991Z,99228.09
2022-11-22T09:29:28.155Z,99231.63
2022-11-22T09:34:30.031Z,99206.31
2022-11-22T09:39:31.723Z,99219.97
2022-11-22T09:45:01.888Z,99229.44
2022-11-22T09:50:33.844Z,99229.06
2022-11-22T09:55:45.378Z,99232.66
2022-11-22T10:00:51.991Z,99234.47
2022-11-22T10:05:57.940Z,99246.44
2022-11-22T10:11:01.371Z,99234.28
2022-11-22T10:16:14.845Z,99222.97
2022-11-22T10:21:16.574Z,99236.97
2022-11-22T10:26:23.979Z,99229.06
2022-11-22T10:31:43.237Z,99229.38
2022-11-22T10:36:57.049Z,99233.22
2022-11-22T10:42:01.430Z,99229.19
2022-11-22T10:47:09.025Z,99232.41
2022-11-22T10:52:33.386Z,99233.88
2022-11-22T10:57:34.872Z,99231.00
2022-11-22T11:02:54.834Z,99225.53
2022-11-22T11:08:04.197Z,99221.50
2022-11-22T11:13:23.574Z,99215.44
2022-11-22T11:18:30.865Z,99215.78
2022-11-22T11:23:32.573Z,99216.41
2022-11-22T11:28:34.125Z,99209.09
2022-11-22T11:33:38.413Z,99197.97
2022-11-22T11:38:42.907Z,99211.00
2022-11-22T11:43:44.559Z,99211.84
2022-11-22T11:48:46.644Z,99200.66
2022-11-22T11:54:15.722Z,99208.91
2022-11-22T11:59:22.299Z,99201.28
2022-11-22T12:04:27.365Z,99195.41
2022-11-22T12:09:32.227Z,99208.38
2022-11-22T12:15:03.290Z,99205.50
2022-11-22T12:20:08.380Z,99203.28
2022-11-22T12:25:32.977Z,99194.63
2022-11-22T12:30:36.271Z,99201.91
2022-11-22T12:35:43.763Z,99202.75
2022-11-22T12:40:50.023Z,99197.84
2022-11-22T12:46:00.182Z,99200.84
2022-11-22T12:51:17.018Z,99200.00
2022-11-22T12:56:33.541Z,99191.59
2022-11-22T13:01:41.545Z,99193.22
2022-11-22T13:06:58.912Z,99186.75
2022-11-22T13:12:08.673Z,99187.03
2022-11-22T13:17:12.242Z,99190.97
2022-11-22T13:22:41.304Z,99204.91
2022-11-22T13:27:50.833Z,99192.16
2022-11-22T13:32:55.440Z,99196.66
2022-11-22T13:38:00.747Z,99207.88
2022-11-22T13:43:49.180Z,99194.69
2022-11-22T13:48:53.613Z,99198.53
2022-11-22T13:54:34.060Z,99194.56
2022-11-22T13:59:35.842Z,99191.19
2022-11-22T14:04:42.602Z,99194.84
2022-11-22T14:09:54.079Z,99198.94
2022-11-22T14:15:27.104Z,99187.41
2022-11-22T14:20:39.520Z,99185.41
2022-11-22T14:25:44.097Z,99196.22
2022-11-22T14:30:49.993Z,99193.38
2022-11-22T14:36:06.633Z,99187.22
2022-11-22T14:41:26.659Z,99182.94
2022-11-22T14:46:52.703Z,99173.19
2022-11-22T14:51:56.257Z,99172.09
2022-11-22T14:57:04.706Z,99184.34
2022-11-22T15:02:25.363Z,99190.34
2022-11-22T15:09:16.117Z,99178.00
2022-11-22T15:13:34.472Z,99183.56
2022-11-22T16:02:19.331Z,99196.72
2022-11-22T16:07:37.722Z,99200.66
2022-11-22T16:12:42.293Z,99199.50
2022-11-22T16:17:55.016Z,99199.91
2022-11-22T16:23:09.781Z,99207.38
2022-11-22T16:28:32.759Z,99210.69
2022-11-22T16:33:35.133Z,99207.50
2022-11-22T16:38:36.791Z,99215.75
2022-11-22T16:43:38.474Z,99209.06
2022-11-22T16:48:40.600Z,99226.25
2022-11-22T16:53:44.724Z,99232.84
2022-11-22T16:58:48.469Z,99215.56
2022-11-22T17:03:53.015Z,99220.78
2022-11-22T17:08:56.640Z,99212.03
2022-11-22T17:14:00.067Z,99223.16
2022-11-22T17:19:01.641Z,99181.78
2022-11-22T17:24:24.809Z,99219.84
2022-11-22T17:29:49.169Z,99233.31
2022-11-22T17:34:48.098Z,99237.84
2022-11-22T17:39:52.736Z,99203.63
2022-11-22T17:44:54.505Z,99239.41
2022-11-22T17:49:56.628Z,99205.38
2022-11-22T17:55:03.546Z,99225.19
2022-11-22T18:00:08.276Z,99236.19
2022-11-22T18:05:09.986Z,99200.47
2022-11-22T18:10:11.977Z,99232.13
2022-11-22T18:15:13.937Z,99207.63
2022-11-22T18:20:15.448Z,99238.34
2022-11-22T18:25:16.978Z,99245.47
2022-11-22T18:30:18.570Z,99248.94
2022-11-22T18:35:20.036Z,99244.50
2022-11-22T18:40:21.563Z,99249.06
2022-11-22T18:45:25.461Z,99241.44
2022-11-22T18:50:26.970Z,99252.19
2022-11-22T18:55:28.490Z,99257.91
2022-11-22T19:00:30.030Z,99266.41
2022-11-22T19:05:31.592Z,99264.72
2022-11-22T19:10:33.059Z,99274.00
2022-11-22T19:15:34.725Z,99260.44
2022-11-22T19:20:54.554Z,99269.03
2022-11-22T19:25:57.075Z,99270.75
2022-11-22T19:31:09.148Z,99263.63
2022-11-22T19:36:16.027Z,99259.03
2022-11-22T19:41:22.744Z,99267.34
2022-11-22T19:46:24.980Z,99266.22
2022-11-22T19:51:28.482Z,99266.31
2022-11-22T19:56:36.345Z,99265.31
2022-11-22T20:01:39.616Z,99266.31
2022-11-22T20:06:43.162Z,99268.03
2022-11-22T20:11:47.504Z,99282.78
2022-11-22T20:16:48.948Z,99282.31
2022-11-22T20:21:50.544Z,99280.44
2022-11-22T20:26:52.074Z,99285.69
2022-11-22T20:31:53.641Z,99282.50
2022-11-22T20:36:55.505Z,99288.56
2022-11-22T20:42:18.506Z,99289.41
2022-11-22T20:47:19.011Z,99294.97
2022-11-22T20:52:20.507Z,99297.97
2022-11-22T20:57:22.039Z,99295.81
2022-11-22T21:02:23.547Z,99302.56
2022-11-22T21:07:25.793Z,99290.19
2022-11-22T21:12:27.532Z,99300.00
2022-11-22T21:17:45.559Z,99300.00
2022-11-22T21:22:54.219Z,99297.13
2022-11-22T21:27:55.718Z,99297.28
2022-11-22T21:32:57.254Z,99304.41
2022-11-22T21:37:58.716Z,99303.59
2022-11-22T21:43:00.166Z,99312.38
2022-11-22T21:48:03.361Z,99322.19
2022-11-22T21:53:05.302Z,99328.28
2022-11-22T21:58:06.866Z,99324.00
2022-11-22T22:03:10.153Z,99330.25
2022-11-22T22:08:11.612Z,99322.13
2022-11-22T22:13:13.057Z,99334.47
2022-11-22T22:18:14.976Z,99332.72
2022-11-22T22:23:16.520Z,99325.47
2022-11-22T22:28:17.956Z,99339.72
2022-11-22T22:33:19.485Z,99344.59
2022-11-22T22:38:20.943Z,99342.72
2022-11-22T22:43:23.473Z,99341.78
2022-11-22T22:48:24.931Z,99342.28
2022-11-22T22:53:26.417Z,99341.25
2022-11-22T22:58:27.996Z,99348.00
2022-11-22T23:03:29.546Z,99346.50
2022-11-22T23:08:31.045Z,99353.63
2022-11-22T23:13:34.529Z,99344.25
2022-11-22T23:18:38.489Z,99347.16
2022-11-22T23:23:39.985Z,99341.53
2022-11-22T23:28:41.468Z,99341.19
2022-11-22T23:33:44.025Z,99355.09
2022-11-22T23:38:46.436Z,99366.34
2022-11-22T23:43:52.529Z,99370.19
2022-11-22T23:48:59.197Z,99377.09
2022-11-22T23:54:03.441Z,99386.56
2022-11-22T23:59:05.682Z,99383.03
